createdAt,value
2022-08-04T00:00:14.546Z,0.50
2022-08-04T00:03:22.789Z,0.70
2022-08-04T00:06:43.869Z,0.55
2022-08-04T00:10:01.697Z,0.40
2022-08-04T00:13:05.533Z,0.40
2022-08-04T00:16:10.674Z,0.40
2022-08-04T00:19:18.384Z,0.47
2022-08-04T00:22:26.948Z,0.50
2022-08-04T00:25:29.750Z,0.40
2022-08-04T00:28:32.940Z,0.40
2022-08-04T00:31:55.048Z,0.40
2022-08-04T00:35:00.591Z,0.43
2022-08-04T00:38:03.978Z,0.30
2022-08-04T00:41:07.110Z,0.30
2022-08-04T00:44:30.866Z,0.30
2022-08-04T00:47:48.954Z,0.40
2022-08-04T00:51:15.098Z,0.30
2022-08-04T00:54:46.813Z,0.30
2022-08-04T00:58:01.481Z,0.37
2022-08-04T01:01:40.931Z,0.30
2022-08-04T01:04:52.553Z,0.20
2022-08-04T01:08:12.121Z,0.35
2022-08-04T01:11:57.103Z,0.50
2022-08-04T01:15:06.368Z,0.20
2022-08-04T01:18:13.353Z,0.75
2022-08-04T01:21:19.026Z,0.30
2022-08-04T01:24:30.859Z,0.45
2022-08-04T01:27:58.532Z,0.28
2022-08-04T01:31:34.540Z,0.33
2022-08-04T01:34:43.488Z,0.30
2022-08-04T01:38:21.015Z,0.30
2022-08-04T01:41:32.393Z,0.40
2022-08-04T01:44:36.873Z,0.30
2022-08-04T01:47:50.459Z,0.30
2022-08-04T01:51:09.271Z,0.20
2022-08-04T01:54:15.941Z,0.30
2022-08-04T01:57:36.990Z,0.30
2022-08-04T02:00:56.553Z,0.30
2022-08-04T02:04:22.029Z,0.20
2022-08-04T02:07:47.678Z,0.35
2022-08-04T02:11:03.975Z,0.32
2022-08-04T02:14:40.936Z,0.30
2022-08-04T02:17:43.752Z,0.30
2022-08-04T02:20:48.557Z,0.30
2022-08-04T02:23:56.643Z,0.30
2022-08-04T02:27:03.248Z,0.50
2022-08-04T02:30:06.757Z,0.30
2022-08-04T02:33:13.171Z,0.28
2022-08-04T02:36:30.699Z,0.30
2022-08-04T02:39:48.550Z,0.40
2022-08-04T02:42:57.524Z,0.30
2022-08-04T02:46:02.182Z,0.30
2022-08-04T02:49:07.849Z,0.35
2022-08-04T02:52:12.655Z,0.50
2022-08-04T02:55:17.616Z,0.30
2022-08-04T02:58:21.063Z,0.28
2022-08-04T03:01:24.385Z,0.20
2022-08-04T03:05:02.746Z,0.40
2022-08-04T03:08:43.353Z,0.30
2022-08-04T03:12:10.736Z,0.30
2022-08-04T03:15:35.186Z,0.40
2022-08-04T03:19:15.485Z,0.30
2022-08-04T03:23:11.706Z,0.30
2022-08-04T03:26:27.135Z,0.30
2022-08-04T03:29:36.651Z,0.30
2022-08-04T03:32:45.710Z,0.30
2022-08-04T03:36:08.899Z,0.20
2022-08-04T03:39:44.787Z,0.30
2022-08-04T03:43:57.920Z,0.30
2022-08-04T03:47:11.045Z,0.20
2022-08-04T03:50:47.122Z,0.30
2022-08-04T03:54:20.689Z,0.40
2022-08-04T03:57:57.036Z,0.35
2022-08-04T04:02:02.498Z,0.50
2022-08-04T04:05:18.200Z,0.50
2022-08-04T04:08:43.286Z,0.40
2022-08-04T04:12:16.329Z,0.50
2022-08-04T04:15:24.920Z,0.45
2022-08-04T04:18:30.384Z,0.60
2022-08-04T04:22:11.833Z,0.50
2022-08-04T04:25:24.030Z,0.75
2022-08-04T04:28:44.185Z,0.50
2022-08-04T04:32:03.321Z,0.60
2022-08-04T04:35:45.870Z,0.60
2022-08-04T04:39:03.963Z,0.60
2022-08-04T04:42:09.361Z,0.60
2022-08-04T04:45:34.614Z,0.70
2022-08-04T04:48:57.379Z,0.75
2022-08-04T04:52:47.776Z,0.70
2022-08-04T04:56:12.078Z,1.33
2022-08-04T04:59:18.972Z,0.70
2022-08-04T05:02:36.567Z,0.70
2022-08-04T05:06:18.427Z,1.30
2022-08-04T05:09:39.872Z,1.10
2022-08-04T05:14:31.815Z,2.47
2022-08-04T05:16:24.705Z,0.80
2022-08-04T05:19:53.678Z,1.08
2022-08-04T05:23:03.792Z,1.10
2022-08-04T05:26:13.155Z,1.13
2022-08-04T05:29:30.995Z,1.10
2022-08-04T05:33:05.085Z,0.98
2022-08-04T05:36:23.529Z,1.42
2022-08-04T05:39:58.503Z,1.00
2022-08-04T05:43:01.938Z,1.13
2022-08-04T05:46:05.589Z,0.85
2022-08-04T05:49:09.787Z,1.30
2022-08-04T05:52:16.635Z,1.50
2022-08-04T05:55:48.837Z,1.70
2022-08-04T05:58:46.477Z,1.07
2022-08-04T06:01:55.890Z,1.35
2022-08-04T06:05:02.187Z,1.50
2022-08-04T06:08:13.395Z,1.42
2022-08-04T06:11:19.241Z,1.80
2022-08-04T06:14:24.162Z,1.40
2022-08-04T06:18:35.098Z,1.60
2022-08-04T06:21:03.889Z,1.60
2022-08-04T06:24:26.320Z,1.60
2022-08-04T06:27:31.563Z,5.65
2022-08-04T06:30:37.177Z,1.33
2022-08-04T06:33:54.366Z,1.45
2022-08-04T06:36:59.300Z,1.62
2022-08-04T06:40:16.718Z,1.75
2022-08-04T06:43:28.530Z,1.83
2022-08-04T06:46:35.875Z,1.47
2022-08-04T06:49:55.202Z,1.75
2022-08-04T06:53:02.302Z,1.92
2022-08-04T06:56:05.860Z,1.42
2022-08-04T06:59:10.658Z,1.33
2022-08-04T07:02:20.950Z,1.83
2022-08-04T07:05:23.907Z,1.80
2022-08-04T07:08:27.319Z,2.33
2022-08-04T07:11:39.061Z,1.73
2022-08-04T07:14:48.584Z,1.98
2022-08-04T07:17:52.608Z,1.70
2022-08-04T07:20:55.704Z,1.55
2022-08-04T07:23:58.671Z,2.22
2022-08-04T07:27:02.819Z,2.15
2022-08-04T07:30:06.481Z,1.83
2022-08-04T07:33:10.668Z,2.10
2022-08-04T07:36:13.422Z,1.70
2022-08-04T07:39:27.546Z,2.10
2022-08-04T07:42:32.106Z,2.28
2022-08-04T07:45:36.079Z,2.08
2022-08-04T07:48:39.161Z,2.27
2022-08-04T07:51:42.291Z,6.45
2022-08-04T07:54:45.646Z,2.60
2022-08-04T07:57:48.727Z,2.00
2022-08-04T08:00:52.146Z,2.28
2022-08-04T08:03:57.366Z,2.10
2022-08-04T08:07:00.258Z,2.45
2022-08-04T08:10:04.081Z,2.33
2022-08-04T08:13:07.475Z,2.42
2022-08-04T08:16:11.695Z,2.40
2022-08-04T08:19:14.529Z,2.70
2022-08-04T08:22:17.558Z,2.60
2022-08-04T08:25:20.461Z,2.40
2022-08-04T08:28:24.930Z,2.40
2022-08-04T08:31:55.898Z,2.40
2022-08-04T08:34:50.876Z,2.17
2022-08-04T08:38:01.725Z,2.22
2022-08-04T08:41:27.821Z,2.30
2022-08-04T08:45:01.302Z,2.75
2022-08-04T08:48:53.399Z,3.40
2022-08-04T08:53:00.787Z,2.40
2022-08-04T08:55:47.702Z,2.60
2022-08-04T08:58:59.572Z,2.58
2022-08-04T09:02:28.554Z,1.95
2022-08-04T09:05:40.378Z,2.97
2022-08-04T09:09:04.703Z,2.20
2022-08-04T09:12:19.211Z,2.12
2022-08-04T09:15:48.193Z,2.75
2022-08-04T09:19:38.479Z,2.47
2022-08-04T09:23:04.382Z,2.58
2022-08-04T09:26:27.858Z,2.00
2022-08-04T09:29:43.383Z,1.77
2022-08-04T09:33:01.451Z,2.10
2022-08-04T09:36:10.531Z,2.60
2022-08-04T09:39:26.446Z,2.00
2022-08-04T09:42:48.856Z,1.93
2022-08-04T09:46:25.802Z,2.30
2022-08-04T09:49:38.764Z,1.80
2022-08-04T09:53:30.578Z,1.98
2022-08-04T09:57:00.082Z,1.90
2022-08-04T10:00:10.618Z,2.03
2022-08-04T10:03:20.298Z,1.70
2022-08-04T10:06:38.502Z,1.75
2022-08-04T10:10:20.262Z,2.00
2022-08-04T10:13:39.645Z,1.80
2022-08-04T10:16:59.305Z,1.83
2022-08-04T10:20:44.869Z,1.70
2022-08-04T10:24:03.194Z,2.00
2022-08-04T10:27:32.931Z,1.85
2022-08-04T10:30:39.393Z,2.00
2022-08-04T10:33:49.846Z,2.10
2022-08-04T10:36:55.208Z,1.90
2022-08-04T10:40:38.073Z,2.05
2022-08-04T10:43:43.240Z,2.00
2022-08-04T10:46:54.519Z,2.10
2022-08-04T10:50:01.891Z,1.87
2022-08-04T10:53:13.577Z,1.77
2022-08-04T10:56:22.958Z,1.80
2022-08-04T10:59:49.430Z,2.05
2022-08-04T11:03:00.982Z,1.80
2022-08-04T11:06:05.021Z,2.03
2022-08-04T11:09:14.964Z,1.90
2022-08-04T11:12:25.377Z,2.20
2022-08-04T11:15:37.769Z,1.50
2022-08-04T11:18:49.875Z,1.62
2022-08-04T11:22:00.303Z,1.93
2022-08-04T11:25:22.257Z,1.80
2022-08-04T11:28:58.585Z,1.98
2022-08-04T11:32:12.600Z,2.10
2022-08-04T11:35:43.255Z,1.83
2022-08-04T11:38:59.482Z,2.10
2022-08-04T11:42:08.018Z,2.10
2022-08-04T11:45:24.684Z,2.55
2022-08-04T11:48:41.430Z,2.12
2022-08-04T11:51:46.532Z,1.83
2022-08-04T11:54:52.790Z,1.70
2022-08-04T11:57:57.909Z,2.05
2022-08-04T12:01:21.532Z,1.92
2022-08-04T12:04:47.882Z,1.80
2022-08-04T12:08:00.153Z,1.90
2022-08-04T12:11:30.310Z,1.80
2022-08-04T12:14:59.637Z,1.50
2022-08-04T12:18:31.408Z,1.92
2022-08-04T12:21:50.321Z,1.67
2022-08-04T12:25:08.625Z,1.85
2022-08-04T12:28:24.931Z,1.83
2022-08-04T12:31:45.429Z,2.78
2022-08-04T12:35:03.523Z,2.10
2022-08-04T12:38:09.210Z,1.95
2022-08-04T12:41:15.574Z,1.75
2022-08-04T12:44:36.219Z,1.77
2022-08-04T12:47:42.707Z,1.70
2022-08-04T12:50:51.763Z,1.87
2022-08-04T12:53:57.230Z,4.43
2022-08-04T12:57:02.433Z,2.00
2022-08-04T13:00:07.704Z,1.70
2022-08-04T13:03:16.737Z,2.08
2022-08-04T13:06:29.416Z,1.90
2022-08-04T13:09:34.256Z,1.75
2022-08-04T13:12:38.282Z,1.62
2022-08-04T13:15:47.548Z,1.90
2022-08-04T13:19:05.403Z,2.20
2022-08-04T13:22:12.099Z,1.87
2022-08-04T13:26:40.185Z,3.28
2022-08-04T13:28:43.403Z,2.60
2022-08-04T13:31:52.943Z,2.43
2022-08-04T13:34:57.840Z,1.73
2022-08-04T13:38:01.837Z,1.80
2022-08-04T13:41:06.957Z,1.73
2022-08-04T13:44:17.766Z,2.10
2022-08-04T13:47:33.490Z,2.17
2022-08-04T13:50:38.194Z,1.90
2022-08-04T13:53:42.540Z,1.80
2022-08-04T13:56:49.521Z,1.45
2022-08-04T13:59:56.619Z,2.00
2022-08-04T14:03:19.178Z,1.63
2022-08-04T14:06:35.198Z,1.95
2022-08-04T14:09:39.541Z,1.85
2022-08-04T14:12:51.507Z,1.90
2022-08-04T14:16:03.612Z,1.80
2022-08-04T14:19:08.196Z,1.83
2022-08-04T14:22:27.663Z,1.90
2022-08-04T14:25:35.606Z,1.80
2022-08-04T14:29:25.328Z,2.53
2022-08-04T14:32:04.464Z,1.70
2022-08-04T14:35:14.704Z,2.00
2022-08-04T14:38:17.930Z,2.05
2022-08-04T14:41:42.032Z,2.35
2022-08-04T14:45:01.049Z,2.12
2022-08-04T14:48:19.190Z,1.90
2022-08-04T14:51:35.955Z,1.60
2022-08-04T14:54:40.317Z,1.70
2022-08-04T14:58:35.570Z,2.55
2022-08-04T15:01:12.221Z,1.80
2022-08-04T15:04:16.066Z,1.80
2022-08-04T15:07:19.082Z,1.90
2022-08-04T15:10:22.547Z,1.83
2022-08-04T15:13:26.698Z,1.70
2022-08-04T15:16:31.399Z,1.70
2022-08-04T15:19:34.662Z,1.70
2022-08-04T15:22:38.745Z,1.80
2022-08-04T15:25:48.303Z,2.10
2022-08-04T15:28:56.212Z,1.70
2022-08-04T15:32:08.982Z,1.70
2022-08-04T15:35:23.360Z,1.90
2022-08-04T15:38:36.039Z,1.83
2022-08-04T15:41:58.414Z,1.70
2022-08-04T15:46:37.291Z,1.98
2022-08-04T15:48:47.747Z,1.90
2022-08-04T15:52:02.761Z,1.90
2022-08-04T15:55:32.338Z,1.70
2022-08-04T15:58:52.547Z,2.65
2022-08-04T16:02:30.308Z,1.60
2022-08-04T16:05:35.776Z,1.70
2022-08-04T16:08:52.585Z,1.83
2022-08-04T16:12:01.025Z,2.67
2022-08-04T16:15:39.298Z,1.58
2022-08-04T16:18:43.987Z,2.45
2022-08-04T16:21:57.885Z,1.70
2022-08-04T16:25:03.992Z,1.62
2022-08-04T16:28:06.806Z,1.60
2022-08-04T16:31:12.369Z,1.70
2022-08-04T16:34:47.185Z,1.90
2022-08-04T16:37:43.167Z,1.60
2022-08-04T16:40:56.513Z,2.00
2022-08-04T16:44:52.834Z,1.60
2022-08-04T16:47:55.982Z,1.55
2022-08-04T16:51:05.293Z,1.58
2022-08-04T16:54:08.451Z,1.77
2022-08-04T16:57:11.424Z,2.33
2022-08-04T17:00:15.143Z,1.90
2022-08-04T17:03:18.265Z,1.80
2022-08-04T17:06:20.902Z,1.37
2022-08-04T17:09:28.454Z,1.50
2022-08-04T17:12:31.437Z,1.50
2022-08-04T17:15:34.470Z,1.87
2022-08-04T17:18:40.904Z,1.60
2022-08-04T17:21:44.451Z,1.60
2022-08-04T17:24:48.188Z,1.48
2022-08-04T17:28:09.587Z,1.58
2022-08-04T17:31:25.315Z,1.47
2022-08-04T17:34:28.265Z,1.50
2022-08-04T17:37:40.086Z,1.25
2022-08-04T17:41:06.063Z,1.55
2022-08-04T17:44:36.394Z,1.30
2022-08-04T17:47:50.398Z,1.60
2022-08-04T17:51:16.880Z,1.60
2022-08-04T17:54:37.156Z,1.33
2022-08-04T17:57:41.399Z,1.60
2022-08-04T18:00:44.589Z,1.60
2022-08-04T18:03:58.158Z,1.37
2022-08-04T18:07:06.695Z,1.27
2022-08-04T18:10:51.996Z,1.20
2022-08-04T18:13:59.089Z,1.30
2022-08-04T18:17:03.841Z,1.30
2022-08-04T18:20:27.812Z,1.07
2022-08-04T18:23:31.424Z,2.50
2022-08-04T18:26:38.314Z,1.12
2022-08-04T18:29:41.457Z,1.52
2022-08-04T18:33:37.814Z,2.67
2022-08-04T18:36:33.571Z,0.97
2022-08-04T18:40:28.084Z,0.90
2022-08-04T18:46:26.863Z,0.80
2022-08-04T18:51:01.063Z,1.75
2022-08-04T18:52:54.574Z,1.07
2022-08-04T18:55:58.492Z,1.08
2022-08-04T18:59:03.732Z,0.60
2022-08-04T19:02:13.139Z,0.80
2022-08-04T19:05:19.816Z,0.85
2022-08-04T19:08:32.823Z,0.80
2022-08-04T19:11:54.703Z,1.02
2022-08-04T19:15:10.281Z,0.70
2022-08-04T19:18:14.046Z,0.70
2022-08-04T19:22:01.085Z,0.70
2022-08-04T19:24:44.510Z,0.70
2022-08-04T19:27:54.812Z,1.12
2022-08-04T19:30:58.249Z,1.20
2022-08-04T19:34:05.007Z,0.70
2022-08-04T19:37:10.059Z,0.80
2022-08-04T19:40:18.273Z,0.80
2022-08-04T19:43:36.657Z,0.75
2022-08-04T19:46:46.850Z,0.75
2022-08-04T19:50:04.697Z,0.62
2022-08-04T19:53:19.321Z,0.80
2022-08-04T19:56:22.608Z,0.70
2022-08-04T19:59:32.330Z,0.77
2022-08-04T20:02:35.303Z,0.80
2022-08-04T20:05:53.273Z,0.60
2022-08-04T20:08:58.963Z,0.70
2022-08-04T20:12:01.886Z,0.90
2022-08-04T20:15:06.431Z,0.70
2022-08-04T20:18:34.991Z,0.80
2022-08-04T20:21:55.931Z,0.80
2022-08-04T20:25:18.234Z,0.80
2022-08-04T20:28:36.089Z,1.53
2022-08-04T20:31:43.164Z,0.60
2022-08-04T20:34:46.131Z,0.85
2022-08-04T20:37:56.943Z,1.27
2022-08-04T20:41:04.836Z,0.90
2022-08-04T20:44:10.950Z,0.60
2022-08-04T20:47:13.989Z,0.98
2022-08-04T20:50:17.555Z,0.90
2022-08-04T20:53:52.671Z,1.10
2022-08-04T20:56:56.669Z,0.65
2022-08-04T21:00:04.209Z,0.60
2022-08-04T21:03:07.210Z,0.75
2022-08-04T21:06:10.339Z,0.80
2022-08-04T21:09:15.530Z,0.70
2022-08-04T21:12:29.241Z,0.70
2022-08-04T21:15:57.784Z,0.70
2022-08-04T21:18:54.798Z,0.70
2022-08-04T21:22:01.152Z,0.60
2022-08-04T21:25:03.966Z,0.60
2022-08-04T21:28:08.575Z,0.43
2022-08-04T21:31:22.108Z,0.47
2022-08-04T21:37:57.897Z,0.40
2022-08-04T21:41:04.621Z,0.40
2022-08-04T21:44:09.162Z,0.75
2022-08-04T21:47:26.024Z,0.40
2022-08-04T21:50:37.062Z,0.88
2022-08-04T21:53:39.969Z,0.93
2022-08-04T21:56:51.067Z,0.70
2022-08-04T21:59:54.949Z,0.80
2022-08-04T22:02:58.358Z,0.50
2022-08-04T22:06:01.426Z,0.40
2022-08-04T22:09:04.349Z,0.40
2022-08-04T22:12:07.346Z,0.65
2022-08-04T22:15:22.421Z,0.50
2022-08-04T22:18:38.849Z,0.60
2022-08-04T22:21:45.549Z,0.40
2022-08-04T22:24:49.702Z,0.30
2022-08-04T22:28:06.138Z,0.40
2022-08-04T22:31:23.234Z,0.60
2022-08-04T22:34:27.938Z,0.40
2022-08-04T22:37:36.024Z,0.60
2022-08-04T22:40:47.627Z,0.40
2022-08-04T22:43:54.801Z,1.05
2022-08-04T22:46:57.795Z,0.30
2022-08-04T22:50:26.870Z,0.80
2022-08-04T22:53:25.272Z,0.35
2022-08-04T22:56:37.987Z,0.93
2022-08-04T22:59:43.318Z,0.75
2022-08-04T23:02:46.470Z,0.40
2022-08-04T23:05:51.062Z,0.77
2022-08-04T23:08:54.150Z,0.47
2022-08-04T23:12:22.269Z,0.20
2022-08-04T23:15:19.599Z,0.65
2022-08-04T23:18:24.038Z,0.30
2022-08-04T23:21:30.971Z,0.53
2022-08-04T23:24:43.848Z,0.30
2022-08-04T23:27:52.370Z,0.40
2022-08-04T23:30:56.354Z,0.73
2022-08-04T23:33:59.596Z,0.30
2022-08-04T23:37:02.877Z,0.43
2022-08-04T23:40:29.786Z,0.60
2022-08-04T23:43:49.288Z,0.40
2022-08-04T23:46:57.810Z,0.30
2022-08-04T23:50:00.491Z,0.40
2022-08-04T23:53:03.425Z,0.70
2022-08-04T23:56:08.832Z,0.60
2022-08-04T23:59:51.989Z,0.30
